Time;durP1;ratioP1;P1;durP2;ratioP2;P2;SDS_P1;SDS_P2;PMS_P1;PMS_P2;Temp;Humidity;BMP_temperature;BMP_pressure;BME280_temperature;BME280_humidity;BME280_pressure;Samples;Min_cycle;Max_cycle;Signal;HPM_P1;HPM_P2
2024/03/14 00:00:44;;;;;;;20.50;7.05;;;;;;;9.42;100.00;101353.22;5043715;28;20055;-72
2024/03/14 00:03:10;;;;;;;18.58;7.30;;;;;;;9.42;100.00;101360.22;5044560;28;20079;-74
2024/03/14 00:05:35;;;;;;;18.75;7.60;;;;;;;9.37;100.00;101357.50;5045008;28;20029;-73
2024/03/14 00:08:00;;;;;;;19.10;7.75;;;;;;;9.37;100.00;101357.50;5042021;28;20030;-67
2024/03/14 00:10:27;;;;;;;18.70;7.43;;;;;;;9.37;100.00;101362.78;5045996;28;20036;-72
2024/03/14 00:12:52;;;;;;;19.52;7.80;;;;;;;9.28;100.00;101364.38;5042446;28;20033;-69
2024/03/14 00:15:17;;;;;;;19.55;8.52;;;;;;;9.27;100.00;101357.31;5045584;28;20029;-67
2024/03/14 00:17:44;;;;;;;19.80;8.30;;;;;;;9.27;100.00;101354.69;5043442;28;20112;-67
2024/03/14 00:20:11;;;;;;;19.50;8.35;;;;;;;9.22;100.00;101351.97;5044154;28;20033;-70
2024/03/14 00:22:37;;;;;;;19.33;8.02;;;;;;;9.19;100.00;101349.28;5044289;28;20060;-69
2024/03/14 00:25:03;;;;;;;19.80;8.98;;;;;;;9.13;100.00;101352.69;5042967;28;20045;-74
2024/03/14 00:27:28;;;;;;;20.00;8.93;;;;;;;9.14;100.00;101353.56;5044157;28;20112;-75
2024/03/14 00:29:55;;;;;;;20.05;9.02;;;;;;;9.17;100.00;101351.84;5041052;28;20029;-75
2024/03/14 00:32:20;;;;;;;19.88;9.38;;;;;;;9.14;100.00;101346.53;5045482;28;20068;-72
2024/03/14 00:34:46;;;;;;;21.27;9.63;;;;;;;9.10;100.00;101346.44;5042785;28;20514;-74
2024/03/14 00:37:13;;;;;;;21.05;10.52;;;;;;;9.10;100.00;101341.19;5044619;28;20033;-74
2024/03/14 00:39:40;;;;;;;21.30;10.63;;;;;;;9.07;100.00;101342.91;5043670;28;20782;-73
2024/03/14 00:42:06;;;;;;;21.13;10.77;;;;;;;9.07;100.00;101337.63;5043593;28;20036;-72
2024/03/14 00:44:32;;;;;;;22.50;11.80;;;;;;;9.10;100.00;101343.81;5044973;28;20029;-73
2024/03/14 00:46:58;;;;;;;21.75;11.82;;;;;;;9.16;100.00;101342.19;5042419;28;20468;-68
2024/03/14 00:49:23;;;;;;;22.35;12.80;;;;;;;9.13;100.00;101342.16;5045263;28;20040;-70
2024/03/14 00:51:49;;;;;;;23.48;13.35;;;;;;;9.08;100.00;101336.75;5042391;28;20542;-68
2024/03/14 00:54:14;;;;;;;23.02;12.57;;;;;;;9.06;100.00;101341.13;5043039;28;20057;-69
2024/03/14 00:56:43;;;;;;;22.38;13.30;;;;;;;9.01;100.00;101334.91;5043427;28;20033;-68
2024/03/14 00:59:09;;;;;;;23.02;13.15;;;;;;;9.01;100.00;101334.00;5043836;28;20057;-72
2024/03/14 01:01:36;;;;;;;23.30;13.00;;;;;;;9.02;100.00;101339.28;5043891;28;20114;-68
2024/03/14 01:04:03;;;;;;;22.55;12.52;;;;;;;9.03;100.00;101335.81;5042518;28;20044;-71
2024/03/14 01:06:29;;;;;;;22.85;12.73;;;;;;;9.01;100.00;101337.53;5045261;28;20515;-70
2024/03/14 01:08:55;;;;;;;23.38;12.65;;;;;;;9.06;100.00;101333.22;5041448;28;20025;-75
2024/03/14 01:11:20;;;;;;;22.50;12.38;;;;;;;9.03;100.00;101335.81;5044976;28;20555;-73
2024/03/14 01:13:45;;;;;;;23.27;13.15;;;;;;;8.96;100.00;101336.53;5042243;28;20033;-73
2024/03/14 01:16:11;;;;;;;22.65;12.90;;;;;;;8.95;100.00;101340.03;5043584;28;20029;-74
2024/03/14 01:18:36;;;;;;;22.20;12.15;;;;;;;8.94;100.00;101335.63;5043726;28;20119;-68
2024/03/14 01:21:05;;;;;;;21.90;11.98;;;;;;;8.95;100.00;101334.75;5041884;28;20081;-71
2024/03/14 01:23:30;;;;;;;22.58;12.27;;;;;;;8.97;100.00;101330.41;5044547;28;20024;-68
2024/03/14 01:25:55;;;;;;;22.17;12.20;;;;;;;8.97;100.00;101329.50;5041272;28;20465;-68
2024/03/14 01:28:21;;;;;;;21.67;11.88;;;;;;;9.02;100.00;101328.75;5044634;28;20025;-69
2024/03/14 01:30:46;;;;;;;21.83;12.25;;;;;;;8.99;100.00;101331.31;5041967;28;20068;-67
2024/03/14 01:33:11;;;;;;;21.67;11.65;;;;;;;8.99;100.00;101320.78;5043014;28;20519;-71
2024/03/14 01:35:37;;;;;;;22.17;11.88;;;;;;;8.97;100.00;101317.25;5043105;28;20029;-68
2024/03/14 01:38:02;;;;;;;22.20;12.05;;;;;;;8.90;100.00;101323.25;5040380;28;20041;-68
2024/03/14 01:40:28;;;;;;;21.55;11.82;;;;;;;8.87;100.00;101323.19;5044348;28;20037;-72
2024/03/14 01:42:55;;;;;;;22.38;12.10;;;;;;;8.87;100.00;101318.81;5039687;28;20057;-74
2024/03/14 01:45:21;;;;;;;22.63;11.65;;;;;;;8.90;100.00;101312.72;5044163;28;20078;-73
2024/03/14 01:47:47;;;;;;;22.40;12.18;;;;;;;8.83;100.00;101306.41;5041947;28;20029;-72
2024/03/14 01:50:14;;;;;;;22.17;12.15;;;;;;;8.82;100.00;101304.63;5043245;28;20045;-75
2024/03/14 01:52:40;;;;;;;22.48;12.60;;;;;;;8.83;100.00;101305.53;5041267;28;20029;-73
2024/03/14 01:55:08;;;;;;;22.85;12.50;;;;;;;8.83;100.00;101309.06;5042079;28;20472;-75
2024/03/14 01:57:34;;;;;;;22.63;12.65;;;;;;;8.78;100.00;101301.91;5043103;28;20398;-75
2024/03/14 02:00:01;;;;;;;22.33;11.98;;;;;;;8.81;100.00;101296.69;5041070;28;20041;-76
2024/03/14 02:02:27;;;;;;;22.50;12.60;;;;;;;8.76;100.00;101301.88;5044396;28;20114;-72
2024/03/14 02:05:16;;;;;;;22.23;12.70;;;;;;;8.79;100.00;101299.31;5036579;28;20476;-73
2024/03/14 02:07:42;;;;;;;23.05;13.18;;;;;;;8.70;100.00;101304.41;5041008;28;20037;-75
2024/03/14 02:10:12;;;;;;;23.33;13.05;;;;;;;8.66;100.00;101298.19;5042668;28;20043;-73
2024/03/14 02:12:38;;;;;;;24.10;13.02;;;;;;;8.65;100.00;101293.78;5042143;28;20037;-71
2024/03/14 02:15:04;;;;;;;22.58;12.68;;;;;;;8.68;100.00;101288.56;5041783;28;20479;-74
2024/03/14 02:17:30;;;;;;;22.65;13.05;;;;;;;8.66;100.00;101287.63;5041184;28;20049;-74
2024/03/14 02:19:56;;;;;;;23.85;13.40;;;;;;;8.66;100.00;101290.25;5042987;28;20029;-71
2024/03/14 02:22:21;;;;;;;22.88;13.10;;;;;;;8.67;100.00;101278.00;5040387;28;20164;-70
2024/03/14 02:24:47;;;;;;;22.70;13.10;;;;;;;8.63;100.00;101286.69;5043101;28;20033;-68
2024/03/14 02:27:13;;;;;;;22.70;13.38;;;;;;;8.64;100.00;101276.19;5042110;28;20025;-69
2024/03/14 02:29:42;;;;;;;22.73;13.57;;;;;;;8.64;100.00;101273.56;5041986;28;20029;-68
2024/03/14 02:32:09;;;;;;;23.38;13.60;;;;;;;8.61;100.00;101273.50;5041351;28;20033;-67
2024/03/14 02:34:34;;;;;;;23.45;14.27;;;;;;;8.58;100.00;101268.16;5041473;28;20030;-70
2024/03/14 02:36:59;;;;;;;23.90;14.25;;;;;;;8.56;100.00;101259.31;5043716;28;20033;-74
2024/03/14 02:39:26;;;;;;;24.10;14.15;;;;;;;8.55;100.00;101260.22;5040685;28;20022;-70
2024/03/14 02:41:52;;;;;;;24.65;15.40;;;;;;;8.54;100.00;101255.78;5044410;28;20160;-71
2024/03/14 02:44:18;;;;;;;24.02;15.23;;;;;;;8.54;100.00;101263.69;5042089;28;20123;-77
2024/03/14 02:46:45;;;;;;;24.30;14.73;;;;;;;8.54;100.00;101261.06;5046431;28;20059;-74
2024/03/14 02:49:14;;;;;;;24.30;14.35;;;;;;;8.53;100.00;101265.44;5046284;28;20484;-76
2024/03/14 02:51:39;;;;;;;23.25;14.40;;;;;;;8.56;100.00;101261.97;5045684;28;20033;-74
2024/03/14 02:54:05;;;;;;;23.90;14.25;;;;;;;8.56;100.00;101256.69;5046692;28;20422;-71
2024/03/14 02:56:31;;;;;;;24.60;15.13;;;;;;;8.55;100.00;101260.22;5044816;28;20025;-71
2024/03/14 02:58:57;;;;;;;24.58;14.95;;;;;;;8.47;100.00;101259.16;5047669;28;20029;-71
2024/03/14 03:01:22;;;;;;;24.13;14.82;;;;;;;8.43;100.00;101246.75;5044538;28;20080;-77
2024/03/14 03:03:48;;;;;;;24.10;15.23;;;;;;;8.40;100.00;101251.97;5045660;28;20021;-75
2024/03/14 03:06:13;;;;;;;24.13;14.63;;;;;;;8.43;100.00;101252.00;5045258;28;20476;-72
2024/03/14 03:08:38;;;;;;;24.15;15.48;;;;;;;8.41;100.00;101248.47;5045331;28;20076;-68
2024/03/14 03:11:04;;;;;;;24.33;15.25;;;;;;;8.36;100.00;101243.13;5046408;28;20043;-68
2024/03/14 03:13:29;;;;;;;25.73;15.65;;;;;;;8.27;100.00;101248.19;5043844;28;20029;-68
2024/03/14 03:15:55;;;;;;;24.75;14.95;;;;;;;8.22;100.00;101245.47;5047260;28;20032;-72
2024/03/14 03:18:20;;;;;;;24.80;15.50;;;;;;;8.19;100.00;101240.13;5043918;28;20025;-74
2024/03/14 03:20:46;;;;;;;24.65;15.05;;;;;;;8.14;100.00;101231.25;5045704;28;20049;-75
2024/03/14 03:23:12;;;;;;;25.27;15.18;;;;;;;8.10;100.00;101237.31;5045476;28;20052;-74
2024/03/14 03:25:38;;;;;;;24.05;15.52;;;;;;;8.11;100.00;101231.19;5044678;28;20025;-74
2024/03/14 03:28:10;;;;;;;24.80;15.13;;;;;;;8.07;100.00;101224.06;5046269;28;20079;-76
2024/03/14 03:30:37;;;;;;;23.55;14.13;;;;;;;8.04;100.00;101227.56;5044625;28;20080;-74
2024/03/14 03:33:03;;;;;;;24.30;14.70;;;;;;;7.97;100.00;101226.53;5046409;28;20032;-74
2024/03/14 03:35:28;;;;;;;24.63;14.90;;;;;;;7.94;100.00;101230.84;5043197;28;20025;-74
2024/03/14 03:37:57;;;;;;;24.80;15.10;;;;;;;7.88;100.00;101223.72;5046842;28;20029;-74
2024/03/14 03:40:23;;;;;;;23.92;14.70;;;;;;;7.84;100.00;101229.75;5042985;28;20529;-74
2024/03/14 03:42:49;;;;;;;23.88;14.55;;;;;;;7.88;100.00;101225.44;5045863;28;20116;-71
2024/03/14 03:45:15;;;;;;;23.38;13.68;;;;;;;7.92;100.00;101227.28;5044382;28;20484;-70
2024/03/14 03:47:41;;;;;;;23.05;13.60;;;;;;;7.90;100.00;101224.63;5044608;28;20048;-67
2024/03/14 03:50:08;;;;;;;22.88;13.52;;;;;;;7.92;100.00;101222.00;5045307;28;20057;-68
2024/03/14 03:52:34;;;;;;;22.77;13.52;;;;;;;7.85;100.00;101231.53;5044077;28;20117;-68
2024/03/14 03:55:00;;;;;;;23.63;13.27;;;;;;;7.85;100.00;101229.78;5044342;28;20032;-67
2024/03/14 03:57:26;;;;;;;22.75;12.88;;;;;;;7.87;100.00;101218.41;5042821;28;20040;-67
2024/03/14 03:59:52;;;;;;;22.25;12.25;;;;;;;7.83;100.00;101215.72;5046067;28;20479;-67
2024/03/14 04:02:18;;;;;;;23.00;13.35;;;;;;;7.78;100.00;101219.97;5043703;28;20104;-67
2024/03/14 04:04:47;;;;;;;22.02;12.45;;;;;;;7.77;100.00;101225.22;5044776;28;20438;-67
2024/03/14 04:07:14;;;;;;;21.88;12.35;;;;;;;7.74;100.00;101220.75;5042993;28;20029;-72
2024/03/14 04:09:46;;;;;;;22.58;12.70;;;;;;;7.73;100.00;101220.72;5043935;28;20045;-67
2024/03/14 04:12:12;;;;;;;22.45;12.38;;;;;;;7.66;100.00;101230.25;5042994;28;20029;-68
2024/03/14 04:14:40;;;;;;;22.33;12.30;;;;;;;7.68;100.00;101223.25;5044359;28;20029;-67
2024/03/14 04:17:07;;;;;;;22.52;12.13;;;;;;;7.67;100.00;101221.47;5044923;28;20032;-75
2024/03/14 04:19:33;;;;;;;21.65;11.13;;;;;;;7.71;100.00;101225.97;5041914;28;20030;-69
2024/03/14 04:21:58;;;;;;;21.70;12.00;;;;;;;7.62;100.00;101224.00;5045880;28;20321;-67
2024/03/14 04:24:25;;;;;;;21.55;11.30;;;;;;;7.58;100.00;101231.81;5038224;28;20037;-68
2024/03/14 04:26:51;;;;;;;21.80;11.55;;;;;;;7.53;100.00;101226.44;5045387;28;20113;-67
2024/03/14 04:29:16;;;;;;;22.13;11.75;;;;;;;7.53;100.00;101229.06;5043433;28;20061;-68
2024/03/14 04:31:42;;;;;;;22.35;11.77;;;;;;;7.49;100.00;101216.69;5044035;28;20388;-68
2024/03/14 04:34:09;;;;;;;21.65;11.07;;;;;;;7.45;100.00;101222.75;5044449;28;20025;-67
2024/03/14 04:36:37;;;;;;;21.17;11.32;;;;;;;7.43;100.00;101224.47;5043087;28;20108;-67
2024/03/14 04:39:08;;;;;;;21.15;10.63;;;;;;;7.39;100.00;101220.84;5045007;28;20476;-71
2024/03/14 04:41:34;;;;;;;21.77;10.82;;;;;;;7.39;100.00;101219.97;5043156;28;20033;-67
2024/03/14 04:43:59;;;;;;;20.70;10.48;;;;;;;7.40;100.00;101217.38;5045582;28;20094;-75
2024/03/14 04:46:25;;;;;;;20.52;10.25;;;;;;;7.47;100.00;101221.03;5042210;28;20029;-78
2024/03/14 04:48:51;;;;;;;20.83;10.20;;;;;;;7.43;100.00;101219.19;5045144;28;20021;-76
2024/03/14 04:51:17;;;;;;;20.90;9.85;;;;;;;7.41;100.00;101219.16;5043445;28;20033;-75
2024/03/14 04:53:42;;;;;;;21.35;10.30;;;;;;;7.39;100.00;101207.69;5043500;28;20125;-68
2024/03/14 04:56:08;;;;;;;20.45;10.00;;;;;;;7.41;100.00;101207.72;5044195;28;20079;-68
2024/03/14 04:58:33;;;;;;;20.50;9.57;;;;;;;7.35;100.00;101208.47;5042376;28;20080;-67
2024/03/14 05:00:59;;;;;;;20.85;10.23;;;;;;;7.35;100.00;101212.84;5045299;28;20530;-67
2024/03/14 05:03:28;;;;;;;20.92;9.77;;;;;;;7.33;100.00;101211.06;5038071;28;20116;-67
2024/03/14 05:05:56;;;;;;;21.10;10.13;;;;;;;7.39;100.00;101209.44;5045156;28;20387;-67
2024/03/14 05:08:22;;;;;;;20.83;10.13;;;;;;;7.37;100.00;101211.13;5041027;28;20415;-71
2024/03/14 05:10:47;;;;;;;20.25;9.60;;;;;;;7.38;100.00;101207.66;5043755;28;20037;-71
2024/03/14 05:13:12;;;;;;;20.35;9.38;;;;;;;7.39;100.00;101209.44;5043323;28;20064;-68
2024/03/14 05:15:38;;;;;;;20.13;9.57;;;;;;;7.38;100.00;101207.66;5042517;28;20108;-69
2024/03/14 05:18:05;;;;;;;20.73;9.93;;;;;;;7.33;100.00;101211.06;5044453;28;20025;-68
2024/03/14 05:20:31;;;;;;;20.75;9.75;;;;;;;7.37;100.00;101211.13;5041592;28;20037;-67
2024/03/14 05:22:57;;;;;;;20.70;9.43;;;;;;;7.37;100.00;101219.03;5044977;28;20029;-67
2024/03/14 05:25:23;;;;;;;19.80;9.48;;;;;;;7.32;100.00;101214.56;5041313;28;20038;-70
2024/03/14 05:27:49;;;;;;;20.13;9.52;;;;;;;7.28;100.00;101212.72;5043137;28;20033;-70
2024/03/14 05:30:17;;;;;;;20.15;9.50;;;;;;;7.32;100.00;101208.41;5041091;28;20395;-67
2024/03/14 05:32:46;;;;;;;20.35;9.25;;;;;;;7.29;100.00;101206.59;5043054;28;20481;-70
2024/03/14 05:35:11;;;;;;;20.98;9.40;;;;;;;7.27;100.00;101205.69;5043214;28;20475;-71
2024/03/14 05:37:37;;;;;;;20.00;8.85;;;;;;;7.32;100.00;101211.03;5042065;28;20110;-70
2024/03/14 05:40:04;;;;;;;19.65;9.00;;;;;;;7.32;100.00;101213.66;5043770;28;20480;-71
2024/03/14 05:42:29;;;;;;;20.30;8.85;;;;;;;7.32;100.00;101209.31;5041133;28;20034;-74
2024/03/14 05:44:55;;;;;;;19.92;9.07;;;;;;;7.27;100.00;101207.44;5044487;28;20025;-74
2024/03/14 05:47:20;;;;;;;20.75;9.60;;;;;;;7.30;100.00;101204.88;5040130;28;20542;-74
2024/03/14 05:49:46;;;;;;;20.05;8.82;;;;;;;7.27;100.00;101200.41;5043178;28;20033;-69
2024/03/14 05:52:14;;;;;;;19.77;8.45;;;;;;;7.30;100.00;101189.97;5042827;28;20051;-73
2024/03/14 05:54:39;;;;;;;19.83;8.88;;;;;;;7.28;100.00;101202.19;5040721;28;20036;-74
2024/03/14 05:57:05;;;;;;;21.33;9.15;;;;;;;7.24;100.00;101202.97;5043605;28;20025;-75
2024/03/14 05:59:30;;;;;;;20.33;9.18;;;;;;;7.23;100.00;101195.94;5040852;28;20384;-74
2024/03/14 06:01:56;;;;;;;19.17;8.75;;;;;;;7.18;100.00;101196.66;5044339;28;20570;-73
2024/03/14 06:04:22;;;;;;;19.77;9.07;;;;;;;7.12;100.00;101205.28;5040922;28;20030;-72
2024/03/14 06:06:48;;;;;;;20.00;9.57;;;;;;;7.12;100.00;101210.56;5043020;28;20076;-72
2024/03/14 06:09:15;;;;;;;19.20;8.73;;;;;;;7.15;100.00;101197.50;5042157;28;20040;-73
2024/03/14 06:11:42;;;;;;;19.60;9.00;;;;;;;7.17;100.00;101200.19;5042015;28;20029;-74
2024/03/14 06:14:07;;;;;;;20.67;9.57;;;;;;;7.14;100.00;101206.25;5043085;28;20550;-71
2024/03/14 06:16:33;;;;;;;19.52;9.00;;;;;;;7.12;100.00;101194.78;5041163;28;20025;-75
2024/03/14 06:18:59;;;;;;;20.58;9.32;;;;;;;7.18;100.00;101199.31;5046182;28;20025;-75
2024/03/14 06:21:24;;;;;;;20.58;9.70;;;;;;;7.18;100.00;101197.59;5044469;28;20489;-75
2024/03/14 06:23:50;;;;;;;20.30;9.20;;;;;;;7.23;100.00;101211.72;5047419;28;20391;-74
2024/03/14 06:26:16;;;;;;;20.52;9.30;;;;;;;7.22;100.00;101204.66;5045646;28;20103;-74
2024/03/14 06:28:42;;;;;;;21.17;10.00;;;;;;;7.25;100.00;101204.75;5045954;28;20025;-75
2024/03/14 06:31:07;;;;;;;20.83;10.02;;;;;;;7.29;100.00;101209.22;5046968;28;20036;-75
2024/03/14 06:33:33;;;;;;;21.23;10.18;;;;;;;7.29;100.00;101214.47;5044586;28;20117;-75
2024/03/14 06:35:58;;;;;;;21.30;10.32;;;;;;;7.32;100.00;101203.16;5044340;28;20052;-72
2024/03/14 06:38:24;;;;;;;20.77;10.05;;;;;;;7.35;100.00;101207.59;5046559;28;20067;-74
2024/03/14 06:40:54;;;;;;;21.05;10.20;;;;;;;7.37;100.00;101211.13;5045177;28;20632;-69
2024/03/14 06:43:21;;;;;;;21.33;10.50;;;;;;;7.41;100.00;101208.66;5046753;28;20033;-68
2024/03/14 06:45:48;;;;;;;20.67;10.05;;;;;;;7.43;100.00;101208.69;5044429;28;20476;-77
2024/03/14 06:48:14;;;;;;;21.15;10.55;;;;;;;7.48;100.00;101215.81;5046362;28;20076;-77
2024/03/14 06:50:39;;;;;;;20.73;9.88;;;;;;;7.53;100.00;101217.66;5046391;28;20037;-77
2024/03/14 06:53:05;;;;;;;20.52;10.05;;;;;;;7.59;100.00;101204.66;5045049;28;20383;-76
2024/03/14 06:55:31;;;;;;;20.92;9.98;;;;;;;7.66;100.00;101210.06;5047406;28;20056;-76
2024/03/14 06:57:57;;;;;;;20.60;9.40;;;;;;;7.71;100.00;101211.94;5044134;28;20104;-77
2024/03/14 07:00:24;;;;;;;20.40;9.85;;;;;;;7.76;100.00;101205.91;5047154;28;20040;-69
2024/03/14 07:02:49;;;;;;;20.88;10.18;;;;;;;7.77;100.00;101201.53;5043431;28;20543;-68
2024/03/14 07:05:15;;;;;;;20.08;9.73;;;;;;;7.79;100.00;101202.44;5045910;28;20117;-74
2024/03/14 07:07:46;;;;;;;20.45;9.43;;;;;;;7.85;100.00;101207.84;5046170;28;20032;-73
2024/03/14 07:10:16;;;;;;;19.83;8.93;;;;;;;7.93;100.00;101203.63;5045161;28;20033;-68
2024/03/14 07:12:48;;;;;;;19.80;9.35;;;;;;;7.98;100.00;101201.97;5046040;28;20482;-69
2024/03/14 07:15:14;;;;;;;20.27;9.40;;;;;;;8.02;100.00;101195.03;5045700;28;20108;-71
2024/03/14 07:17:40;;;;;;;19.65;9.65;;;;;;;8.07;100.00;101195.09;5045891;28;20314;-70
2024/03/14 07:20:09;;;;;;;20.85;9.82;;;;;;;8.13;100.00;101195.25;5044563;28;20076;-70
2024/03/14 07:22:39;;;;;;;20.73;9.27;;;;;;;8.18;100.00;101199.75;5046472;28;20110;-69
2024/03/14 07:25:08;;;;;;;20.63;9.57;;;;;;;8.27;100.00;101204.31;5042965;28;20528;-67
2024/03/14 07:27:34;;;;;;;19.92;9.32;;;;;;;8.36;100.00;101207.13;5046447;28;20033;-66
2024/03/14 07:30:03;;;;;;;20.30;9.00;;;;;;;8.47;100.00;101203.84;5042668;28;20093;-70
2024/03/14 07:32:29;;;;;;;20.52;9.60;;;;;;;8.54;100.00;101203.97;5046940;28;20063;-68
2024/03/14 07:34:56;;;;;;;19.40;8.50;;;;;;;8.68;100.00;101198.97;5043355;28;20061;-69
2024/03/14 07:37:23;;;;;;;19.83;8.70;;;;;;;8.76;100.00;101199.09;5046105;28;20029;-72
2024/03/14 07:39:52;;;;;;;19.52;8.27;;;;;;;8.87;100.00;101201.91;5044320;28;20040;-70
2024/03/14 07:42:18;;;;;;;18.80;7.82;;;;;;;8.94;100.00;101198.53;5045589;28;20081;-71
2024/03/14 07:44:45;;;;;;;18.95;7.88;;;;;;;9.06;100.00;101190.81;5044745;28;20522;-72
2024/03/14 07:47:23;;;;;;;19.05;7.82;;;;;;;9.11;100.00;101200.53;5047462;28;20032;-69
2024/03/14 07:49:50;;;;;;;18.75;7.68;;;;;;;9.15;100.00;101190.06;5045466;28;20036;-71
2024/03/14 07:52:15;;;;;;;18.67;7.57;;;;;;;9.29;100.00;101195.56;5044326;28;20430;-71
2024/03/14 07:54:44;;;;;;;18.48;7.50;;;;;;;9.42;100.00;101197.50;5044628;28;20030;-71
2024/03/14 07:57:12;;;;;;;18.55;7.20;;;;;;;9.56;100.00;101191.53;5045396;28;20442;-71
2024/03/14 07:59:38;;;;;;;17.92;7.45;;;;;;;9.72;100.00;101196.16;5043828;28;20033;-75
2024/03/14 08:02:07;;;;;;;18.10;6.82;;;;;;;9.87;100.00;101190.22;5044710;28;20390;-75
2024/03/14 08:04:33;;;;;;;18.00;6.70;;;;;;;10.05;100.00;101184.25;5043272;28;20033;-75
2024/03/14 08:06:59;;;;;;;17.77;6.70;;;;;;;10.24;100.00;101187.13;5046308;28;20112;-75
2024/03/14 08:09:26;;;;;;;17.10;6.30;;;;;;;10.41;100.00;101182.03;5042817;28;20018;-73
2024/03/14 08:11:52;;;;;;;17.40;6.18;;;;;;;10.52;100.00;101185.69;5045571;28;20522;-68
2024/03/14 08:14:17;;;;;;;15.73;5.82;;;;;;;10.77;100.00;101184.13;5044138;28;20304;-70
2024/03/14 08:16:42;;;;;;;16.17;5.85;;;;;;;10.94;100.00;101176.34;5044337;28;20079;-68
2024/03/14 08:19:09;;;;;;;16.08;5.47;;;;;;;10.97;100.00;101183.44;5045210;28;20502;-67
2024/03/14 08:21:36;;;;;;;16.63;5.60;;;;;;;10.92;100.00;101182.50;5042705;28;20404;-68
2024/03/14 08:24:09;;;;;;;15.45;5.70;;;;;;;10.84;100.00;101178.94;5045992;28;20368;-68
2024/03/14 08:26:36;;;;;;;14.60;5.35;;;;;;;10.92;100.00;101185.16;5040142;28;20476;-68
2024/03/14 08:29:02;;;;;;;15.15;5.40;;;;;;;10.96;100.00;101184.31;5045740;28;20033;-67
2024/03/14 08:31:28;;;;;;;15.18;5.30;;;;;;;10.92;100.00;101182.50;5038369;28;20369;-67
2024/03/14 08:33:55;;;;;;;15.30;5.47;;;;;;;10.87;100.00;101179.81;5045306;28;20040;-69
2024/03/14 08:36:21;;;;;;;15.63;5.50;;;;;;;10.84;100.00;101190.38;5042717;28;20383;-67
2024/03/14 08:38:48;;;;;;;15.38;5.30;;;;;;;10.89;100.00;101183.38;5044236;28;20026;-68
2024/03/14 08:41:14;;;;;;;13.63;4.93;;;;;;;10.84;100.00;101182.44;5043435;28;20036;-69
2024/03/14 08:43:40;;;;;;;14.45;5.00;;;;;;;10.88;100.00;101178.06;5042544;28;20388;-67
2024/03/14 08:46:06;;;;;;;12.93;4.93;;;;;;;10.82;100.00;101179.78;5045346;28;20379;-67
2024/03/14 08:48:33;;;;;;;13.45;4.82;;;;;;;10.95;100.00;101180.78;5042127;28;20029;-67
2024/03/14 08:50:59;;;;;;;14.13;5.03;;;;;;;11.20;100.00;101183.63;5045549;28;20383;-72
2024/03/14 08:53:30;;;;;;;13.65;4.90;;;;;;;11.48;100.00;101175.84;5042068;28;20039;-71
2024/03/14 08:55:58;;;;;;;14.45;4.80;;;;;;;11.69;100.00;101173.34;5045400;28;20031;-72
2024/03/14 08:58:29;;;;;;;15.73;4.50;;;;;;;11.95;100.00;101166.41;5040282;28;20116;-71
2024/03/14 09:00:56;;;;;;;12.07;4.20;;;;;;;12.01;100.00;101163.75;5043456;28;20029;-72
2024/03/14 09:03:22;;;;;;;13.05;4.30;;;;;;;12.09;100.00;101170.00;5044855;28;20051;-73
2024/03/14 09:05:49;;;;;;;10.35;4.10;;;;;;;12.24;100.00;101162.97;5042447;28;20361;-68
2024/03/14 09:08:18;;;;;;;11.32;4.20;;;;;;;12.30;100.00;101168.28;5043331;28;20424;-68
2024/03/14 09:10:45;;;;;;;10.82;4.07;;;;;;;12.32;100.00;101163.84;5043211;28;20033;-68
2024/03/14 09:13:10;;;;;;;11.30;4.03;;;;;;;12.62;100.00;101164.78;5043119;28;20038;-73
2024/03/14 09:15:36;;;;;;;10.40;3.90;;;;;;;12.89;100.00;101170.13;5044192;28;20116;-70
2024/03/14 09:18:03;;;;;;;9.73;3.75;;;;;;;13.00;100.00;101161.25;5040596;28;20024;-69
2024/03/14 09:20:28;;;;;;;11.73;4.10;;;;;;;13.00;100.00;101151.53;5043629;28;20033;-72
2024/03/14 09:22:54;;;;;;;11.38;3.80;;;;;;;12.95;100.00;101152.44;5040428;28;20049;-78
2024/03/14 09:25:24;;;;;;;10.57;3.88;;;;;;;12.87;100.00;101153.31;5044304;28;20527;-70
2024/03/14 09:27:51;;;;;;;9.82;3.90;;;;;;;12.80;100.00;101158.59;5042100;28;20107;-68
2024/03/14 09:30:17;;;;;;;8.93;3.58;;;;;;;12.73;100.00;101163.91;5043560;28;20438;-69
2024/03/14 09:32:42;;;;;;;8.32;3.65;;;;;;;12.77;100.00;101148.91;5043107;28;20029;-76
2024/03/14 09:35:14;;;;;;;14.13;4.05;;;;;;;12.62;100.00;101156.84;5041985;28;20476;-73
2024/03/14 09:37:39;;;;;;;10.43;3.70;;;;;;;12.90;100.00;101141.81;5043163;28;20037;-75
2024/03/14 09:40:13;;;;;;;9.43;3.90;;;;;;;13.23;100.00;101147.97;5041968;28;20025;-67
2024/03/14 09:42:39;;;;;;;13.05;4.03;;;;;;;13.52;100.00;101150.59;5043873;28;20032;-76
2024/03/14 09:45:07;;;;;;;11.27;3.83;;;;;;;13.64;100.00;101139.03;5041821;28;20030;-74
2024/03/14 09:47:40;;;;;;;11.93;4.00;;;;;;;14.08;100.00;101139.72;5044287;28;20096;-74
2024/03/14 09:50:10;;;;;;;;;;;;;;;14.37;100.00;101143.97;5042527;28;20472;-76
2024/03/14 09:52:36;;;;;;;10.82;3.60;;;;;;;14.93;100.00;101136.50;5043783;28;19920;-78
2024/03/14 09:55:03;;;;;;;10.00;3.60;;;;;;;15.37;100.00;101137.81;5041567;28;20372;-78
2024/03/14 09:57:31;;;;;;;11.60;3.60;;;;;;;16.10;100.00;101136.97;5044743;28;20495;-79
2024/03/14 09:59:57;;;;;;;9.82;3.30;;;;;;;16.24;100.00;101132.31;5036120;28;20384;-78
2024/03/14 10:02:26;;;;;;;8.63;3.35;;;;;;;16.48;100.00;101133.72;5044166;28;20115;-78
2024/03/14 10:04:52;;;;;;;9.52;3.40;;;;;;;16.61;100.00;101134.41;5041989;28;20041;-78
2024/03/14 10:07:17;;;;;;;10.40;3.50;;;;;;;16.67;100.00;101123.66;5042452;28;20041;-77
2024/03/14 10:09:43;;;;;;;9.95;3.30;;;;;;;16.11;100.00;101131.63;5041590;28;20468;-78
2024/03/14 10:12:12;;;;;;;9.35;3.50;;;;;;;15.28;100.00;101119.28;5042519;28;20033;-78
2024/03/14 10:14:38;;;;;;;11.95;3.80;;;;;;;15.02;100.00;101119.56;5043817;28;20049;-79
2024/03/14 10:17:04;;;;;;;11.35;3.80;;;;;;;15.65;100.00;101121.53;5041134;28;20064;-70
2024/03/14 10:19:35;;;;;;;8.88;3.40;;;;;;;16.26;100.00;101121.63;5044208;28;20440;-68
2024/03/14 10:22:01;;;;;;;11.57;3.42;;;;;;;16.16;100.00;101120.88;5037212;28;20042;-67
2024/03/14 10:24:29;;;;;;;7.82;3.03;;;;;;;16.27;100.00;101100.28;5036511;28;20496;-69
2024/03/14 10:26:55;;;;;;;8.13;3.10;;;;;;;16.21;100.00;101105.72;5042557;28;20067;-67
2024/03/14 10:29:22;;;;;;;8.13;3.10;;;;;;;16.16;100.00;101113.78;5041232;28;20098;-68
2024/03/14 10:31:48;;;;;;;10.55;3.20;;;;;;;16.53;100.00;101123.00;5042694;28;20473;-68
2024/03/14 10:34:14;;;;;;;9.85;3.15;;;;;;;16.84;100.00;101109.16;5041986;28;20060;-68
2024/03/14 10:36:41;;;;;;;6.43;2.85;;;;;;;17.25;100.00;101105.72;5041788;28;20464;-68
2024/03/14 10:39:14;;;;;;;8.13;3.00;;;;;;;17.69;100.00;101103.09;5043024;28;20116;-71
2024/03/14 10:41:47;;;;;;;9.90;3.00;;;;;;;17.87;100.00;101109.84;5041507;28;20069;-68
2024/03/14 10:44:18;;;;;;;7.03;2.70;;;;;;;17.86;100.00;101104.53;5041067;28;20029;-68
2024/03/14 10:46:51;;;;;;;7.75;2.90;;;;;;;18.05;100.00;101095.19;5008001;28;20030;-68
2024/03/14 10:49:20;;;;;;;7.10;2.75;;;;;;;18.49;100.00;101099.53;5041725;28;20029;-74
2024/03/14 10:51:49;;;;;;;5.65;2.50;;;;;;;18.98;100.00;101090.28;5042319;28;20033;-70
2024/03/14 10:54:19;;;;;;;5.55;2.50;;;;;;;18.98;100.00;101098.31;5042090;28;20033;-71
2024/03/14 10:56:45;;;;;;;7.40;2.50;;;;;;;18.91;100.00;101096.72;5040674;28;20384;-68
2024/03/14 10:59:14;;;;;;;6.07;2.50;;;;;;;18.47;100.00;101081.72;5042369;28;20033;-74
2024/03/14 11:01:47;;;;;;;5.47;2.38;;;;;;;19.06;100.00;101079.34;5041783;28;20472;-72
2024/03/14 11:04:13;;;;;;;5.05;2.50;;;;;;;19.91;100.00;101071.59;5042374;28;20361;-72
2024/03/14 11:06:39;;;;;;;7.03;2.40;;;;;;;20.15;100.00;101076.19;5042836;28;20026;-75
2024/03/14 11:09:08;;;;;;;5.70;2.50;;;;;;;19.73;100.00;101065.84;5046906;28;20054;-71